createdAt,value
2019-03-22T00:00:30.784Z,36.65
2019-03-22T00:02:59.226Z,34.70
2019-03-22T00:05:27.657Z,35.08
2019-03-22T00:07:56.097Z,34.40
2019-03-22T00:10:24.533Z,34.90
2019-03-22T00:12:52.982Z,36.65
2019-03-22T00:15:21.421Z,36.10
2019-03-22T00:17:49.853Z,37.25
2019-03-22T00:20:18.284Z,35.80
2019-03-22T00:22:46.738Z,37.23
2019-03-22T00:25:15.183Z,37.53
2019-03-22T00:27:43.677Z,37.43
2019-03-22T00:30:12.270Z,36.98
2019-03-22T00:32:40.697Z,36.83
2019-03-22T00:35:09.693Z,36.88
2019-03-22T00:37:38.133Z,36.40
2019-03-22T00:40:07.320Z,37.98
2019-03-22T00:42:35.749Z,38.20
2019-03-22T00:45:06.036Z,40.10
2019-03-22T00:47:34.458Z,42.38
2019-03-22T00:50:04.941Z,43.28
2019-03-22T00:52:33.685Z,42.05
2019-03-22T00:55:02.149Z,42.48
2019-03-22T00:57:30.571Z,44.35
2019-03-22T00:59:59.019Z,43.50
2019-03-22T01:02:27.444Z,45.52
2019-03-22T01:04:55.887Z,44.85
2019-03-22T01:07:24.323Z,44.50
2019-03-22T01:09:52.772Z,44.77
2019-03-22T01:12:21.477Z,44.35
2019-03-22T01:14:49.917Z,45.73
2019-03-22T01:17:18.341Z,46.30
2019-03-22T01:19:46.788Z,43.90
2019-03-22T01:22:15.231Z,42.13
2019-03-22T01:24:43.674Z,39.60
2019-03-22T01:27:12.113Z,39.27
2019-03-22T01:29:40.621Z,38.08
2019-03-22T01:32:09.070Z,40.60
2019-03-22T01:34:37.501Z,37.30
2019-03-22T01:37:05.945Z,36.48
2019-03-22T01:39:34.375Z,38.23
2019-03-22T01:42:02.818Z,39.33
2019-03-22T01:44:31.248Z,38.40
2019-03-22T01:46:59.680Z,39.58
2019-03-22T01:49:28.141Z,37.90
2019-03-22T01:51:56.588Z,38.35
2019-03-22T01:54:25.041Z,38.30
2019-03-22T01:56:53.464Z,40.35
2019-03-22T01:59:21.903Z,39.03
2019-03-22T02:01:50.329Z,38.40
2019-03-22T02:04:18.781Z,38.00
2019-03-22T02:06:47.217Z,38.83
2019-03-22T02:09:15.703Z,39.58
2019-03-22T02:11:44.177Z,40.98
2019-03-22T02:14:12.609Z,43.00
2019-03-22T02:16:41.360Z,42.60
2019-03-22T02:19:10.055Z,42.05
2019-03-22T02:21:38.504Z,42.03
2019-03-22T02:24:06.942Z,41.28
2019-03-22T02:26:35.373Z,42.98
2019-03-22T02:29:03.834Z,41.73
2019-03-22T02:31:32.274Z,42.90
2019-03-22T02:34:00.710Z,40.77
2019-03-22T02:36:29.152Z,41.68
2019-03-22T02:38:57.583Z,40.80
2019-03-22T02:41:26.357Z,41.23
2019-03-22T02:43:55.034Z,39.63
2019-03-22T02:46:23.933Z,41.13
2019-03-22T02:48:52.444Z,40.03
2019-03-22T02:51:20.882Z,38.42
2019-03-22T02:53:49.378Z,39.23
2019-03-22T02:56:17.818Z,39.70
2019-03-22T02:58:46.354Z,39.48
2019-03-22T03:01:14.842Z,39.15
2019-03-22T03:03:43.272Z,40.78
2019-03-22T03:06:11.713Z,37.97
2019-03-22T03:08:40.150Z,39.13
2019-03-22T03:11:08.584Z,39.90
2019-03-22T03:13:37.030Z,39.95
2019-03-22T03:16:05.461Z,39.88
2019-03-22T03:18:33.902Z,38.70
2019-03-22T03:21:02.326Z,39.95
2019-03-22T03:23:30.773Z,39.53
2019-03-22T03:25:59.207Z,39.60
2019-03-22T03:28:36.869Z,39.92
2019-03-22T03:30:57.875Z,40.58
2019-03-22T03:33:26.330Z,39.53
2019-03-22T03:35:54.816Z,38.88
2019-03-22T03:38:23.270Z,35.03
2019-03-22T03:40:51.692Z,36.55
2019-03-22T03:43:20.143Z,38.10
2019-03-22T03:45:48.552Z,38.25
2019-03-22T03:48:16.985Z,38.23
2019-03-22T03:50:45.433Z,35.68
2019-03-22T03:53:13.862Z,37.70
2019-03-22T03:55:42.295Z,37.45
2019-03-22T03:58:10.754Z,38.28
2019-03-22T04:00:39.181Z,40.05
2019-03-22T04:03:07.611Z,40.45
2019-03-22T04:05:36.045Z,38.42
2019-03-22T04:08:04.917Z,39.27
2019-03-22T04:10:33.369Z,39.88
2019-03-22T04:13:01.797Z,40.08
2019-03-22T04:15:30.230Z,41.30
2019-03-22T04:17:58.663Z,43.60
2019-03-22T04:20:27.104Z,43.30
2019-03-22T04:22:55.791Z,46.30
2019-03-22T04:25:24.271Z,44.55
2019-03-22T04:27:53.429Z,42.98
2019-03-22T04:30:21.861Z,44.63
2019-03-22T04:32:50.642Z,46.25
2019-03-22T04:35:19.082Z,45.60
2019-03-22T04:37:47.509Z,45.23
2019-03-22T04:40:26.577Z,44.40
2019-03-22T04:42:55.142Z,44.60
2019-03-22T04:45:25.380Z,44.35
2019-03-22T04:48:12.101Z,43.60
2019-03-22T04:50:43.425Z,42.83
2019-03-22T04:53:14.930Z,43.87
2019-03-22T04:55:46.597Z,43.00
2019-03-22T04:58:16.769Z,44.35
2019-03-22T05:00:46.157Z,42.45
2019-03-22T05:03:14.751Z,44.48
2019-03-22T05:05:44.933Z,42.93
2019-03-22T05:08:15.873Z,43.55
2019-03-22T05:10:45.166Z,42.67
2019-03-22T05:13:15.505Z,42.70
2019-03-22T05:15:44.380Z,43.42
2019-03-22T05:18:13.089Z,44.30
2019-03-22T05:20:43.949Z,43.90
2019-03-22T05:23:13.615Z,43.58
2019-03-22T05:25:43.223Z,41.40
2019-03-22T05:28:12.891Z,43.30
2019-03-22T05:30:53.373Z,43.55
2019-03-22T05:33:21.809Z,42.83
2019-03-22T05:35:50.260Z,42.15
2019-03-22T05:38:18.685Z,40.85
2019-03-22T05:40:47.129Z,42.03
2019-03-22T05:43:15.574Z,42.55
2019-03-22T05:45:44.003Z,40.50
2019-03-22T05:48:12.433Z,40.52
2019-03-22T05:50:40.861Z,41.08
2019-03-22T05:53:09.309Z,43.15
2019-03-22T05:55:37.750Z,40.60
2019-03-22T05:58:07.743Z,42.50
2019-03-22T06:00:36.172Z,41.28
2019-03-22T06:03:04.620Z,41.68
2019-03-22T06:05:33.053Z,41.53
2019-03-22T06:08:01.488Z,42.90
2019-03-22T06:10:29.944Z,41.80
2019-03-22T06:12:58.381Z,43.13
2019-03-22T06:15:26.817Z,43.25
2019-03-22T06:17:55.248Z,45.28
2019-03-22T06:20:23.692Z,44.13
2019-03-22T06:22:52.122Z,43.52
2019-03-22T06:25:20.633Z,44.45
2019-03-22T06:27:49.132Z,47.85
2019-03-22T06:30:17.632Z,46.77
2019-03-22T06:32:46.141Z,46.53
2019-03-22T06:35:14.576Z,45.43
2019-03-22T06:37:43.026Z,46.63
2019-03-22T06:40:11.942Z,47.83
2019-03-22T06:42:40.477Z,46.90
2019-03-22T06:45:09.247Z,46.80
2019-03-22T06:47:37.719Z,45.63
2019-03-22T06:50:07.364Z,45.23
2019-03-22T06:52:35.804Z,46.40
2019-03-22T06:55:06.342Z,45.23
2019-03-22T06:57:34.797Z,45.85
2019-03-22T07:00:07.961Z,45.95
2019-03-22T07:02:36.422Z,46.30
2019-03-22T07:05:06.494Z,46.90
2019-03-22T07:07:35.011Z,46.97
2019-03-22T07:10:05.281Z,46.75
2019-03-22T07:12:33.725Z,46.85
2019-03-22T07:15:02.191Z,46.63
2019-03-22T07:17:30.632Z,47.47
2019-03-22T07:19:59.065Z,47.95
2019-03-22T07:22:27.514Z,46.53
2019-03-22T07:24:55.975Z,46.53
2019-03-22T07:27:24.445Z,45.20
2019-03-22T07:29:52.865Z,46.28
2019-03-22T07:32:21.318Z,46.70
2019-03-22T07:34:49.770Z,48.08
2019-03-22T07:37:18.206Z,44.05
2019-03-22T07:39:46.643Z,45.30
2019-03-22T07:42:17.487Z,46.53
2019-03-22T07:44:45.301Z,45.92
2019-03-22T07:47:13.773Z,48.23
2019-03-22T07:49:42.259Z,48.90
2019-03-22T07:52:10.715Z,48.28
2019-03-22T07:54:39.186Z,49.10
2019-03-22T07:57:07.716Z,50.05
2019-03-22T07:59:36.205Z,51.30
2019-03-22T08:02:05.021Z,49.23
2019-03-22T08:04:33.464Z,47.55
2019-03-22T08:07:01.898Z,48.63
2019-03-22T08:09:30.668Z,48.65
2019-03-22T08:11:59.468Z,46.70
2019-03-22T08:14:28.104Z,47.08
2019-03-22T08:16:56.541Z,46.48
2019-03-22T08:19:25.005Z,47.08
2019-03-22T08:21:53.597Z,47.60
2019-03-22T08:24:22.064Z,49.88
2019-03-22T08:26:50.572Z,49.10
2019-03-22T08:29:19.000Z,45.05
2019-03-22T08:31:47.465Z,43.20
2019-03-22T08:34:16.052Z,42.50
2019-03-22T08:36:45.505Z,43.25
2019-03-22T08:39:14.279Z,42.65
2019-03-22T08:41:42.792Z,44.73
2019-03-22T08:44:11.241Z,42.30
2019-03-22T08:46:39.744Z,41.35
2019-03-22T08:49:09.651Z,39.95
2019-03-22T08:51:43.665Z,48.58
2019-03-22T08:54:12.177Z,39.85
2019-03-22T08:56:40.670Z,39.13
2019-03-22T08:59:09.137Z,38.97
2019-03-22T09:01:37.598Z,37.23
2019-03-22T09:04:06.096Z,37.58
2019-03-22T09:06:34.564Z,37.10
2019-03-22T09:09:03.467Z,37.60
2019-03-22T09:11:31.935Z,37.20
2019-03-22T09:14:00.352Z,37.43
2019-03-22T09:16:30.797Z,37.53
2019-03-22T09:18:59.012Z,37.88
2019-03-22T09:21:27.446Z,35.83
2019-03-22T09:23:55.886Z,35.75
2019-03-22T09:26:24.343Z,38.35
2019-03-22T09:28:52.854Z,37.33
2019-03-22T09:31:21.406Z,37.90
2019-03-22T09:33:49.932Z,37.33
2019-03-22T09:36:19.299Z,36.20
2019-03-22T09:38:47.826Z,37.05
2019-03-22T09:41:16.345Z,37.95
2019-03-22T09:43:44.784Z,37.85
2019-03-22T09:46:13.337Z,37.15
2019-03-22T09:48:41.843Z,38.58
2019-03-22T09:51:10.343Z,38.83
2019-03-22T09:53:38.843Z,36.77
2019-03-22T09:56:07.307Z,38.38
2019-03-22T09:58:35.745Z,39.25
2019-03-22T10:01:04.257Z,37.80
2019-03-22T10:03:34.306Z,37.93
2019-03-22T10:06:02.768Z,39.05
2019-03-22T10:08:31.279Z,37.58
2019-03-22T10:10:59.733Z,38.55
2019-03-22T10:13:28.167Z,40.70
2019-03-22T10:15:56.726Z,40.65
2019-03-22T10:18:25.250Z,38.23
2019-03-22T10:20:53.809Z,39.75
2019-03-22T10:23:22.511Z,38.98
2019-03-22T10:25:51.129Z,39.83
2019-03-22T10:28:19.662Z,40.15
2019-03-22T10:30:48.190Z,41.10
2019-03-22T10:33:22.438Z,38.60
2019-03-22T10:35:46.859Z,41.10
2019-03-22T10:38:16.457Z,41.60
2019-03-22T10:40:45.237Z,39.88
2019-03-22T10:43:13.700Z,42.00
2019-03-22T10:45:42.210Z,42.87
2019-03-22T10:48:10.690Z,41.90
2019-03-22T10:50:39.149Z,42.80
2019-03-22T10:53:07.956Z,42.85
2019-03-22T10:55:36.392Z,42.25
2019-03-22T10:58:04.953Z,42.40
2019-03-22T11:00:33.388Z,42.62
2019-03-22T11:03:01.828Z,41.40
2019-03-22T11:05:30.261Z,43.90
2019-03-22T11:07:58.706Z,40.63
2019-03-22T11:10:27.140Z,41.25
2019-03-22T11:12:55.586Z,40.73
2019-03-22T11:15:24.134Z,42.20
2019-03-22T11:17:52.641Z,41.55
2019-03-22T11:20:21.068Z,42.93
2019-03-22T11:22:49.505Z,40.85
2019-03-22T11:25:17.937Z,41.03
2019-03-22T11:27:46.419Z,40.78
2019-03-22T11:30:17.776Z,42.30
2019-03-22T11:32:46.304Z,40.70
2019-03-22T11:35:14.869Z,43.52
2019-03-22T11:37:43.596Z,42.93
2019-03-22T11:40:14.975Z,42.55
2019-03-22T11:42:43.533Z,61.83
2019-03-22T11:45:15.121Z,42.80
2019-03-22T11:47:43.902Z,43.20
2019-03-22T11:50:12.727Z,43.52
2019-03-22T11:52:41.204Z,41.58
2019-03-22T11:55:12.181Z,43.38
2019-03-22T11:57:40.688Z,42.23
2019-03-22T12:00:17.441Z,44.25
2019-03-22T12:02:45.887Z,42.48
2019-03-22T12:05:15.857Z,44.18
2019-03-22T12:07:44.375Z,45.70
2019-03-22T12:10:18.373Z,45.80
2019-03-22T12:12:46.900Z,46.10
2019-03-22T12:15:23.579Z,47.53
2019-03-22T12:17:52.103Z,45.08
2019-03-22T12:20:22.901Z,45.38
2019-03-22T12:22:51.919Z,46.45
2019-03-22T12:25:25.547Z,46.55
2019-03-22T12:27:53.968Z,45.30
2019-03-22T12:30:22.400Z,46.63
2019-03-22T12:32:50.901Z,45.50
2019-03-22T12:35:19.356Z,44.58
2019-03-22T12:37:48.064Z,46.33
2019-03-22T12:40:18.871Z,46.15
2019-03-22T12:42:47.341Z,48.23
2019-03-22T12:45:29.880Z,47.03
2019-03-22T12:47:58.339Z,46.90
2019-03-22T12:50:27.084Z,46.35
2019-03-22T12:52:55.578Z,47.40
2019-03-22T12:55:24.045Z,47.95
2019-03-22T12:57:52.740Z,47.17
2019-03-22T13:00:25.049Z,48.45
2019-03-22T13:02:53.935Z,46.63
2019-03-22T13:05:23.132Z,46.92
2019-03-22T13:07:51.850Z,48.75
2019-03-22T13:10:22.781Z,51.80
2019-03-22T13:12:51.384Z,47.20
2019-03-22T13:15:19.937Z,50.60
2019-03-22T13:17:48.365Z,47.75
2019-03-22T13:20:16.980Z,47.23
2019-03-22T13:22:45.493Z,47.93
2019-03-22T13:25:15.830Z,49.30
2019-03-22T13:27:44.300Z,46.95
2019-03-22T13:30:28.196Z,47.90
2019-03-22T13:32:56.640Z,49.25
2019-03-22T13:35:26.173Z,48.45
2019-03-22T13:37:54.702Z,48.10
2019-03-22T13:40:23.161Z,47.75
2019-03-22T13:42:51.630Z,48.55
2019-03-22T13:45:20.087Z,47.83
2019-03-22T13:47:48.563Z,49.95
2019-03-22T13:50:17.047Z,48.87
2019-03-22T13:52:45.678Z,50.40
2019-03-22T13:55:17.243Z,48.75
2019-03-22T13:57:45.932Z,50.40
2019-03-22T14:02:46.930Z,48.75
2019-03-22T14:05:18.972Z,51.28
2019-03-22T14:07:47.557Z,48.98
2019-03-22T14:10:21.691Z,47.17
2019-03-22T14:12:50.273Z,50.15
2019-03-22T14:15:18.730Z,50.65
2019-03-22T14:17:47.192Z,51.15
2019-03-22T14:20:15.666Z,49.80
2019-03-22T14:22:44.112Z,50.30
2019-03-22T14:25:12.562Z,49.65
2019-03-22T14:27:41.000Z,50.08
2019-03-22T14:30:10.622Z,49.45
2019-03-22T14:32:39.073Z,46.88
2019-03-22T14:35:08.188Z,48.55
2019-03-22T14:37:36.642Z,49.65
2019-03-22T14:40:06.699Z,49.03
2019-03-22T14:42:35.146Z,48.92
2019-03-22T14:45:05.885Z,48.10
2019-03-22T14:47:34.320Z,47.15
2019-03-22T14:50:02.753Z,47.58
2019-03-22T14:52:31.202Z,47.62
2019-03-22T14:54:59.649Z,47.30
2019-03-22T14:57:28.578Z,47.43
2019-03-22T14:59:59.182Z,50.43
2019-03-22T15:02:27.559Z,48.10
2019-03-22T15:04:56.001Z,44.93
2019-03-22T15:07:24.437Z,48.43
2019-03-22T15:09:52.885Z,48.80
2019-03-22T15:12:21.325Z,48.60
2019-03-22T15:15:07.725Z,47.48
2019-03-22T15:17:52.932Z,46.15
2019-03-22T15:20:28.940Z,47.00
2019-03-22T15:23:10.772Z,46.33
2019-03-22T15:25:57.249Z,47.58
2019-03-22T15:28:27.326Z,47.55
2019-03-22T15:31:13.620Z,48.45
2019-03-22T15:33:55.925Z,48.30
2019-03-22T15:36:41.627Z,48.35
2019-03-22T15:39:14.757Z,50.13
2019-03-22T15:41:43.328Z,48.25
2019-03-22T15:44:11.814Z,48.57
2019-03-22T15:46:40.376Z,47.25
2019-03-22T15:49:08.817Z,48.75
2019-03-22T15:51:37.263Z,49.30
2019-03-22T15:54:05.695Z,49.77
2019-03-22T15:56:34.151Z,49.33
2019-03-22T15:59:02.589Z,49.30
2019-03-22T16:01:31.020Z,49.93
2019-03-22T16:03:59.459Z,48.60
2019-03-22T16:06:27.904Z,48.20
2019-03-22T16:08:56.336Z,50.85
2019-03-22T16:11:24.779Z,50.00
2019-03-22T16:13:53.259Z,50.88
2019-03-22T16:16:21.681Z,53.25
2019-03-22T16:18:50.125Z,50.45
2019-03-22T16:21:18.566Z,50.60
2019-03-22T16:23:47.015Z,50.05
2019-03-22T16:26:15.449Z,51.08
2019-03-22T16:28:43.893Z,51.85
2019-03-22T16:31:12.320Z,50.78
2019-03-22T16:33:40.764Z,52.05
2019-03-22T16:36:11.116Z,51.98
2019-03-22T16:38:41.858Z,52.10
2019-03-22T16:41:11.112Z,52.13
2019-03-22T16:43:41.754Z,51.77
2019-03-22T16:46:14.234Z,52.60
2019-03-22T16:48:43.413Z,52.60
2019-03-22T16:51:11.901Z,52.70
2019-03-22T16:53:40.496Z,52.40
2019-03-22T16:56:08.929Z,51.63
2019-03-22T16:58:37.385Z,53.30
2019-03-22T17:01:06.644Z,50.15
2019-03-22T17:03:35.410Z,50.75
2019-03-22T17:06:03.867Z,49.67
2019-03-22T17:08:32.382Z,51.05
2019-03-22T17:11:00.907Z,50.70
2019-03-22T17:13:29.338Z,50.60
2019-03-22T17:15:57.768Z,51.85
2019-03-22T17:18:26.212Z,52.83
2019-03-22T17:20:54.644Z,53.42
2019-03-22T17:23:23.095Z,52.90
2019-03-22T17:25:51.550Z,53.73
2019-03-22T17:28:20.006Z,52.35
2019-03-22T17:30:48.442Z,52.35
2019-03-22T17:33:16.894Z,51.65
2019-03-22T17:35:45.333Z,53.73
2019-03-22T17:38:13.769Z,53.20
2019-03-22T17:40:42.216Z,52.43
2019-03-22T17:43:10.640Z,54.55
2019-03-22T17:45:39.077Z,54.23
2019-03-22T17:48:07.504Z,55.33
2019-03-22T17:50:35.949Z,52.43
2019-03-22T17:53:04.388Z,51.18
2019-03-22T17:55:32.829Z,51.08
2019-03-22T17:58:01.395Z,52.35
2019-03-22T18:00:29.856Z,54.67
2019-03-22T18:02:58.347Z,53.90
2019-03-22T18:05:26.810Z,55.43
2019-03-22T18:07:55.610Z,54.85
2019-03-22T18:10:24.059Z,57.88
2019-03-22T18:12:52.483Z,55.70
2019-03-22T18:15:20.945Z,55.23
2019-03-22T18:17:49.399Z,55.43
2019-03-22T18:20:18.313Z,55.00
2019-03-22T18:22:46.821Z,57.00
2019-03-22T18:25:15.865Z,57.40
2019-03-22T18:27:44.791Z,55.70
2019-03-22T18:30:14.969Z,57.88
2019-03-22T18:32:43.410Z,54.73
2019-03-22T18:35:12.198Z,55.40
2019-03-22T18:37:40.647Z,56.68
2019-03-22T18:40:11.417Z,58.87
2019-03-22T18:42:39.877Z,58.90
2019-03-22T18:45:10.811Z,56.28
2019-03-22T18:47:39.365Z,57.27
2019-03-22T18:50:10.149Z,56.10
2019-03-22T18:52:38.615Z,57.65
2019-03-22T18:55:07.761Z,56.95
2019-03-22T18:57:36.489Z,55.08
2019-03-22T19:00:07.419Z,55.37
2019-03-22T19:02:36.217Z,56.42
2019-03-22T19:05:07.127Z,57.75
2019-03-22T19:07:35.578Z,54.90
2019-03-22T19:10:06.534Z,54.43
2019-03-22T19:12:34.983Z,54.53
2019-03-22T19:15:04.967Z,55.95
2019-03-22T19:17:33.393Z,55.45
2019-03-22T19:20:01.835Z,55.33
2019-03-22T19:22:30.276Z,57.60
2019-03-22T19:24:58.722Z,57.30
2019-03-22T19:27:27.175Z,56.25
2019-03-22T19:29:55.602Z,57.65
2019-03-22T19:32:24.041Z,59.45
2019-03-22T19:34:54.522Z,57.90
2019-03-22T19:37:23.588Z,59.33
2019-03-22T19:39:52.029Z,64.67
2019-03-22T19:42:20.479Z,60.43
2019-03-22T19:44:48.992Z,59.38
2019-03-22T19:47:17.480Z,57.25
2019-03-22T19:49:46.040Z,60.78
2019-03-22T19:52:14.509Z,56.35
2019-03-22T19:54:42.995Z,57.40
2019-03-22T19:57:11.433Z,56.95
2019-03-22T19:59:39.936Z,59.03
2019-03-22T20:02:08.386Z,57.40
2019-03-22T20:04:36.821Z,57.13
2019-03-22T20:07:05.247Z,56.90
2019-03-22T20:09:33.687Z,57.98
2019-03-22T20:12:02.565Z,58.55
2019-03-22T20:14:30.990Z,59.23
2019-03-22T20:16:59.424Z,59.23
2019-03-22T20:19:27.894Z,59.05
2019-03-22T20:21:56.317Z,59.75
2019-03-22T20:24:24.756Z,58.78
2019-03-22T20:26:53.189Z,59.50
2019-03-22T20:29:21.628Z,62.85
2019-03-22T20:31:50.060Z,60.15
2019-03-22T20:34:19.428Z,59.95
2019-03-22T20:36:47.859Z,60.85
2019-03-22T20:39:16.302Z,61.08
2019-03-22T20:41:44.745Z,61.88
2019-03-22T20:44:13.196Z,63.28
2019-03-22T20:46:41.624Z,61.00
2019-03-22T20:49:10.074Z,60.67
2019-03-22T20:51:38.579Z,61.75
2019-03-22T20:54:07.013Z,61.42
2019-03-22T20:56:35.436Z,60.88
2019-03-22T20:59:03.878Z,61.75
2019-03-22T21:01:32.402Z,61.77
2019-03-22T21:04:00.850Z,59.35
2019-03-22T21:06:29.280Z,62.25
2019-03-22T21:08:57.775Z,62.23
2019-03-22T21:11:26.273Z,62.30
2019-03-22T21:13:54.722Z,64.15
2019-03-22T21:16:23.147Z,62.85
2019-03-22T21:18:51.596Z,62.50
2019-03-22T21:21:20.033Z,63.65
2019-03-22T21:23:48.458Z,65.10
2019-03-22T21:26:16.894Z,64.15
2019-03-22T21:28:45.338Z,63.40
2019-03-22T21:31:13.797Z,63.83
2019-03-22T21:33:42.243Z,61.42
2019-03-22T21:36:10.704Z,67.08
2019-03-22T21:38:39.388Z,65.32
2019-03-22T21:41:07.838Z,68.05
2019-03-22T21:43:36.259Z,63.37
2019-03-22T21:46:04.758Z,73.33
2019-03-22T21:48:33.209Z,69.77
2019-03-22T21:51:01.677Z,66.67
2019-03-22T21:53:30.106Z,68.50
2019-03-22T21:55:58.546Z,68.10
2019-03-22T21:58:26.996Z,68.75
2019-03-22T22:00:55.505Z,68.52
2019-03-22T22:03:23.932Z,64.13
2019-03-22T22:05:52.380Z,66.70
2019-03-22T22:08:20.848Z,67.05
2019-03-22T22:10:59.424Z,64.58
2019-03-22T22:13:19.458Z,64.95
2019-03-22T22:15:47.904Z,67.37
2019-03-22T22:18:16.318Z,67.35
2019-03-22T22:20:44.792Z,66.43
2019-03-22T22:23:13.233Z,70.92
2019-03-22T22:25:41.844Z,67.75
2019-03-22T22:28:10.630Z,68.55
2019-03-22T22:30:39.069Z,72.27
2019-03-22T22:33:07.530Z,70.22
2019-03-22T22:35:36.279Z,70.80
2019-03-22T22:38:04.722Z,69.73
2019-03-22T22:40:33.151Z,72.35
2019-03-22T22:43:01.617Z,70.05
2019-03-22T22:45:30.384Z,70.70
2019-03-22T22:47:58.838Z,74.77
2019-03-22T22:50:27.277Z,71.93
2019-03-22T22:52:55.713Z,75.57
2019-03-22T22:55:24.423Z,73.70
2019-03-22T22:57:52.873Z,72.80
2019-03-22T23:00:21.318Z,72.50
2019-03-22T23:02:49.765Z,75.23
2019-03-22T23:05:18.218Z,75.97
2019-03-22T23:07:46.670Z,74.80
2019-03-22T23:10:15.102Z,75.28
2019-03-22T23:12:44.116Z,75.53
2019-03-22T23:15:13.207Z,74.12
2019-03-22T23:17:41.651Z,73.67
2019-03-22T23:20:11.028Z,75.72
2019-03-22T23:22:39.757Z,72.78
2019-03-22T23:25:08.824Z,75.92
2019-03-22T23:27:37.542Z,74.47
2019-03-22T23:30:12.798Z,73.25
2019-03-22T23:32:41.402Z,75.42
2019-03-22T23:35:09.912Z,75.78
2019-03-22T23:37:38.369Z,74.15
2019-03-22T23:40:07.257Z,75.78
2019-03-22T23:42:35.690Z,76.20
2019-03-22T23:45:06.267Z,73.67
2019-03-22T23:47:34.960Z,76.95
2019-03-22T23:50:05.355Z,77.90
2019-03-22T23:52:33.798Z,76.60
2019-03-22T23:55:02.254Z,74.85
2019-03-22T23:57:30.696Z,76.97
2019-03-22T23:59:59.183Z,79.92
